createdAt,value
2023-04-16T00:02:01.567Z,75.62
2023-04-16T00:04:28.495Z,76.32
2023-04-16T00:06:55.467Z,76.65
2023-04-16T00:09:22.277Z,76.00
2023-04-16T00:11:49.064Z,75.61
2023-04-16T00:14:15.936Z,75.98
2023-04-16T00:16:42.754Z,76.11
2023-04-16T00:19:09.921Z,76.71
2023-04-16T00:21:37.000Z,76.55
2023-04-16T00:24:03.810Z,77.41
2023-04-16T00:26:30.645Z,77.12
2023-04-16T00:28:57.340Z,77.75
2023-04-16T00:31:28.853Z,77.48
2023-04-16T00:33:56.991Z,78.25
2023-04-16T00:36:24.713Z,78.06
2023-04-16T00:38:51.628Z,77.64
2023-04-16T00:41:18.515Z,78.42
2023-04-16T00:43:45.673Z,78.01
2023-04-16T00:46:13.105Z,78.32
2023-04-16T00:48:41.765Z,77.76
2023-04-16T00:51:09.163Z,77.30
2023-04-16T00:53:36.529Z,77.32
2023-04-16T00:56:06.747Z,77.42
2023-04-16T00:58:35.338Z,78.31
2023-04-16T01:01:02.534Z,77.40
2023-04-16T01:03:42.052Z,78.37
2023-04-16T01:06:09.697Z,78.29
2023-04-16T01:08:36.669Z,77.76
2023-04-16T01:11:04.103Z,78.19
2023-04-16T01:13:31.568Z,78.29
2023-04-16T01:15:58.387Z,78.38
2023-04-16T01:18:26.237Z,78.73
2023-04-16T01:20:53.162Z,78.32
2023-04-16T01:23:20.543Z,78.49
2023-04-16T01:25:47.634Z,78.42
2023-04-16T01:28:15.014Z,78.40
2023-04-16T01:30:41.862Z,77.99
2023-04-16T01:33:18.501Z,78.24
2023-04-16T01:35:45.547Z,78.34
2023-04-16T01:38:15.360Z,78.48
2023-04-16T01:40:42.131Z,78.51
2023-04-16T01:43:08.929Z,78.41
2023-04-16T01:45:36.073Z,78.56
2023-04-16T01:48:03.858Z,78.45
2023-04-16T01:50:31.365Z,78.59
2023-04-16T01:52:58.212Z,78.77
2023-04-16T01:55:25.013Z,79.18
2023-04-16T01:57:51.850Z,79.46
2023-04-16T02:00:20.498Z,78.13
2023-04-16T02:02:47.568Z,78.30
2023-04-16T02:05:20.725Z,79.12
2023-04-16T02:07:47.652Z,79.41
2023-04-16T02:10:14.454Z,79.79
2023-04-16T02:12:41.240Z,79.05
2023-04-16T02:15:08.458Z,80.14
2023-04-16T02:17:35.797Z,79.78
2023-04-16T02:20:10.910Z,79.87
2023-04-16T02:22:48.077Z,79.91
2023-04-16T02:25:18.272Z,80.61
2023-04-16T02:27:45.268Z,80.40
2023-04-16T02:30:24.794Z,80.55
2023-04-16T02:32:52.664Z,80.61
2023-04-16T02:35:20.403Z,80.20
2023-04-16T02:37:47.220Z,81.04
2023-04-16T02:40:14.187Z,80.94
2023-04-16T02:42:40.942Z,81.04
2023-04-16T02:45:08.871Z,81.27
2023-04-16T02:47:35.817Z,81.13
2023-04-16T02:50:03.011Z,81.11
2023-04-16T02:52:29.800Z,80.85
2023-04-16T02:54:56.608Z,80.92
2023-04-16T02:57:23.331Z,81.17
2023-04-16T02:59:50.204Z,80.37
2023-04-16T03:02:17.168Z,80.50
2023-04-16T03:04:44.099Z,80.75
2023-04-16T03:07:12.458Z,80.83
2023-04-16T03:09:39.433Z,81.25
2023-04-16T03:12:06.407Z,80.74
2023-04-16T03:14:33.582Z,81.41
2023-04-16T03:17:00.539Z,81.58
2023-04-16T03:19:27.313Z,81.07
2023-04-16T03:21:54.040Z,80.99
2023-04-16T03:24:20.740Z,81.61
2023-04-16T03:26:49.021Z,80.70
2023-04-16T03:29:16.065Z,81.61
2023-04-16T03:31:43.187Z,82.05
2023-04-16T03:34:10.770Z,81.62
2023-04-16T03:36:39.203Z,81.52
2023-04-16T03:39:06.169Z,82.27
2023-04-16T03:41:33.247Z,82.05
2023-04-16T03:44:00.505Z,82.41
2023-04-16T03:46:27.345Z,81.99
2023-04-16T03:48:54.423Z,82.46
2023-04-16T03:51:21.473Z,82.50
2023-04-16T03:53:48.245Z,82.70
2023-04-16T03:56:14.963Z,83.18
2023-04-16T03:58:41.679Z,82.56
2023-04-16T04:01:08.650Z,82.55
2023-04-16T04:03:37.058Z,82.47
2023-04-16T04:06:10.271Z,82.28
2023-04-16T04:08:37.235Z,82.00
2023-04-16T04:11:04.939Z,82.05
2023-04-16T04:13:33.312Z,82.42
2023-04-16T04:16:00.331Z,82.79
2023-04-16T04:18:28.038Z,82.62
2023-04-16T04:20:54.792Z,82.58
2023-04-16T04:23:25.762Z,83.46
2023-04-16T04:25:52.452Z,83.06
2023-04-16T04:28:19.151Z,83.08
2023-04-16T04:30:45.914Z,83.43
2023-04-16T04:33:13.110Z,83.50
2023-04-16T04:35:39.838Z,83.33
2023-04-16T04:38:08.738Z,82.91
2023-04-16T04:40:35.718Z,83.11
2023-04-16T04:43:03.333Z,83.18
2023-04-16T04:45:31.964Z,82.81
2023-04-16T04:47:59.100Z,82.77
2023-04-16T04:50:25.858Z,83.80
2023-04-16T04:52:52.659Z,83.20
2023-04-16T04:55:19.452Z,84.10
2023-04-16T04:57:46.278Z,83.73
2023-04-16T05:00:13.189Z,83.49
2023-04-16T05:02:47.459Z,83.06
2023-04-16T05:05:14.334Z,83.68
2023-04-16T05:07:41.399Z,83.58
2023-04-16T05:10:08.789Z,83.52
2023-04-16T05:12:35.690Z,83.99
2023-04-16T05:15:02.332Z,83.41
2023-04-16T05:17:29.051Z,83.56
2023-04-16T05:19:55.972Z,83.43
2023-04-16T05:22:22.757Z,84.21
2023-04-16T05:24:49.370Z,83.84
2023-04-16T05:27:16.170Z,83.85
2023-04-16T05:29:42.883Z,83.83
2023-04-16T05:32:09.580Z,84.23
2023-04-16T05:34:36.297Z,83.54
2023-04-16T05:37:03.015Z,84.10
2023-04-16T05:39:29.653Z,84.32
2023-04-16T05:41:56.601Z,84.58
2023-04-16T05:44:23.318Z,84.34
2023-04-16T05:46:50.273Z,84.82
2023-04-16T05:49:18.827Z,84.42
2023-04-16T05:51:45.908Z,84.79
2023-04-16T05:54:12.568Z,84.62
2023-04-16T05:56:39.533Z,84.67
2023-04-16T05:59:06.198Z,84.63
2023-04-16T06:01:34.381Z,85.09
2023-04-16T06:04:01.346Z,84.40
2023-04-16T06:06:28.202Z,85.25
2023-04-16T06:08:54.856Z,85.00
2023-04-16T06:11:21.545Z,84.75
2023-04-16T06:13:48.623Z,85.43
2023-04-16T06:16:15.362Z,85.15
2023-04-16T06:18:42.385Z,84.81
2023-04-16T06:21:09.155Z,85.28
2023-04-16T06:23:35.873Z,84.84
2023-04-16T06:26:02.567Z,84.77
2023-04-16T06:28:29.276Z,84.84
2023-04-16T06:30:56.021Z,84.76
2023-04-16T06:33:22.954Z,84.97
2023-04-16T06:35:49.676Z,84.83
2023-04-16T06:38:16.446Z,85.25
2023-04-16T06:40:43.180Z,85.30
2023-04-16T06:43:09.917Z,86.12
2023-04-16T06:45:36.589Z,85.01
2023-04-16T06:48:05.092Z,86.03
2023-04-16T06:50:32.102Z,84.97
2023-04-16T06:52:58.850Z,85.76
2023-04-16T06:55:25.575Z,84.59
2023-04-16T06:57:52.581Z,85.45
2023-04-16T07:00:19.311Z,85.56
2023-04-16T07:02:46.349Z,85.14
2023-04-16T07:05:13.289Z,85.87
2023-04-16T07:07:40.054Z,85.45
2023-04-16T07:10:08.050Z,85.37
2023-04-16T07:12:34.815Z,85.24
2023-04-16T07:15:01.494Z,85.37
2023-04-16T07:17:28.276Z,85.26
2023-04-16T07:19:54.938Z,85.20
2023-04-16T07:22:21.654Z,85.87
2023-04-16T07:24:48.374Z,85.80
2023-04-16T07:27:15.261Z,86.03
2023-04-16T07:29:42.059Z,85.94
2023-04-16T07:32:08.881Z,86.45
2023-04-16T07:34:35.999Z,86.21
2023-04-16T07:37:02.666Z,85.62
2023-04-16T07:39:29.456Z,86.46
2023-04-16T07:41:56.351Z,86.08
2023-04-16T07:44:23.060Z,86.08
2023-04-16T07:46:50.038Z,86.13
2023-04-16T07:49:16.826Z,85.98
2023-04-16T07:51:43.755Z,86.73
2023-04-16T07:54:11.023Z,86.89
2023-04-16T07:56:37.873Z,87.12
2023-04-16T07:59:14.908Z,86.76
2023-04-16T08:01:48.692Z,87.15
2023-04-16T08:04:17.564Z,86.45
2023-04-16T08:06:44.344Z,86.89
2023-04-16T08:09:11.261Z,86.12
2023-04-16T08:11:38.132Z,86.43
2023-04-16T08:14:04.816Z,86.72
2023-04-16T08:16:31.835Z,86.54
2023-04-16T08:19:00.980Z,86.65
2023-04-16T08:21:29.753Z,86.25
2023-04-16T08:23:56.958Z,86.09
2023-04-16T08:26:23.724Z,86.91
2023-04-16T08:28:50.432Z,87.02
2023-04-16T08:31:17.507Z,86.03
2023-04-16T08:33:44.527Z,86.14
2023-04-16T08:36:11.270Z,85.53
2023-04-16T08:38:38.122Z,86.31
2023-04-16T08:41:09.334Z,86.12
2023-04-16T08:43:39.149Z,85.87
2023-04-16T08:46:07.681Z,86.67
2023-04-16T08:48:35.467Z,86.31
2023-04-16T08:51:02.931Z,85.99
2023-04-16T08:53:39.477Z,86.09
2023-04-16T08:56:09.818Z,85.77
2023-04-16T08:58:38.870Z,85.45
2023-04-16T09:01:06.625Z,84.90
2023-04-16T09:03:36.512Z,84.74
2023-04-16T09:06:04.458Z,84.67
2023-04-16T09:08:32.294Z,84.49
2023-04-16T09:10:59.680Z,84.67
2023-04-16T09:13:26.835Z,84.85
2023-04-16T09:15:54.633Z,84.39
2023-04-16T09:18:21.504Z,84.38
2023-04-16T09:20:52.148Z,84.34
2023-04-16T09:23:18.942Z,84.03
2023-04-16T09:25:46.051Z,84.34
2023-04-16T09:28:12.860Z,83.74
2023-04-16T09:30:39.876Z,83.50
2023-04-16T09:33:22.358Z,83.45
2023-04-16T09:35:51.082Z,83.23
2023-04-16T09:38:18.818Z,82.44
2023-04-16T09:40:47.512Z,82.49
2023-04-16T09:43:16.724Z,81.81
2023-04-16T09:45:50.101Z,82.73
2023-04-16T09:48:28.934Z,81.57
2023-04-16T09:50:56.380Z,81.63
2023-04-16T09:53:28.310Z,81.35
2023-04-16T09:55:58.829Z,79.74
2023-04-16T09:58:26.233Z,79.31
2023-04-16T10:00:57.557Z,79.82
2023-04-16T10:03:35.670Z,79.46
2023-04-16T10:06:14.692Z,79.83
2023-04-16T10:08:51.470Z,78.37
2023-04-16T10:11:19.950Z,78.89
2023-04-16T10:13:47.004Z,80.08
2023-04-16T10:16:14.204Z,79.36
2023-04-16T10:18:43.293Z,77.91
2023-04-16T10:21:12.744Z,78.13
2023-04-16T10:23:40.628Z,79.00
2023-04-16T10:26:07.682Z,78.56
2023-04-16T10:28:37.931Z,78.24
2023-04-16T10:31:07.354Z,77.54
2023-04-16T10:33:40.456Z,76.38
2023-04-16T10:36:23.087Z,76.20
2023-04-16T10:38:52.371Z,75.97
2023-04-16T10:41:22.546Z,76.82
2023-04-16T10:43:50.991Z,76.41
2023-04-16T10:46:21.525Z,76.66
2023-04-16T10:48:50.812Z,75.67
2023-04-16T10:51:35.529Z,76.67
2023-04-16T10:54:20.995Z,75.86
2023-04-16T10:56:47.999Z,76.17
2023-04-16T10:59:18.755Z,76.01
2023-04-16T11:01:52.576Z,75.73
2023-04-16T11:04:19.445Z,75.61
2023-04-16T11:07:04.109Z,74.62
2023-04-16T11:09:52.734Z,75.17
2023-04-16T11:12:27.197Z,75.33
2023-04-16T11:14:59.021Z,74.56
2023-04-16T11:17:30.306Z,75.02
2023-04-16T11:19:57.118Z,75.00
2023-04-16T11:22:24.303Z,74.75
2023-04-16T11:24:55.962Z,75.40
2023-04-16T11:27:26.388Z,75.01
2023-04-16T11:30:04.758Z,74.32
2023-04-16T11:32:33.372Z,74.51
2023-04-16T11:35:03.862Z,75.15
2023-04-16T11:37:35.175Z,74.85
2023-04-16T11:40:07.044Z,74.96
2023-04-16T11:42:37.368Z,73.72
2023-04-16T11:45:04.941Z,74.94
2023-04-16T11:47:32.103Z,74.68
2023-04-16T11:50:16.394Z,73.93
2023-04-16T11:52:43.087Z,74.05
2023-04-16T11:55:10.007Z,74.25
2023-04-16T11:57:38.182Z,74.81
2023-04-16T12:00:14.003Z,73.86
2023-04-16T12:02:43.362Z,73.82
2023-04-16T12:05:33.871Z,72.80
2023-04-16T12:08:06.378Z,73.26
2023-04-16T12:10:37.280Z,73.01
2023-04-16T12:13:14.726Z,73.16
2023-04-16T12:15:49.411Z,72.99
2023-04-16T12:18:17.531Z,72.25
2023-04-16T12:20:45.372Z,72.50
2023-04-16T12:23:24.273Z,72.47
2023-04-16T12:25:52.153Z,72.80
2023-04-16T12:28:48.125Z,73.43
2023-04-16T12:31:15.838Z,73.37
2023-04-16T12:33:42.729Z,72.58
2023-04-16T12:36:19.230Z,73.27
2023-04-16T12:38:46.558Z,73.07
2023-04-16T12:41:13.222Z,72.65
2023-04-16T12:43:39.870Z,73.13
2023-04-16T12:46:06.811Z,73.20
2023-04-16T12:48:33.885Z,72.40
2023-04-16T12:51:00.544Z,72.48
2023-04-16T12:53:27.324Z,72.55
2023-04-16T12:55:54.253Z,72.75
2023-04-16T12:58:20.964Z,71.93
2023-04-16T13:00:47.918Z,71.76
2023-04-16T13:03:15.120Z,73.01
2023-04-16T13:05:41.989Z,72.38
2023-04-16T13:08:08.784Z,72.50
2023-04-16T13:10:35.788Z,72.27
2023-04-16T13:13:02.432Z,72.46
2023-04-16T13:15:29.253Z,72.73
2023-04-16T13:17:55.977Z,72.73
2023-04-16T13:20:24.436Z,73.67
2023-04-16T13:22:51.444Z,73.04
2023-04-16T13:25:18.184Z,72.54
2023-04-16T13:27:44.954Z,72.59
2023-04-16T13:30:12.117Z,72.78
2023-04-16T13:32:38.895Z,71.71
2023-04-16T13:35:06.150Z,71.73
2023-04-16T13:37:32.878Z,72.00
2023-04-16T13:39:59.564Z,71.47
2023-04-16T13:42:26.277Z,71.48
2023-04-16T13:44:54.918Z,71.23
2023-04-16T13:47:22.039Z,72.19
2023-04-16T13:49:48.882Z,71.41
2023-04-16T13:52:15.726Z,71.23
2023-04-16T13:54:45.716Z,71.73
2023-04-16T13:57:19.864Z,71.40
2023-04-16T13:59:47.301Z,72.38
2023-04-16T14:02:15.079Z,72.02
2023-04-16T14:04:42.241Z,72.27
2023-04-16T14:07:08.927Z,72.10
2023-04-16T14:09:35.726Z,71.67
2023-04-16T14:12:02.694Z,71.88
2023-04-16T14:14:29.827Z,71.28
2023-04-16T14:16:58.569Z,71.95
2023-04-16T14:19:25.640Z,71.57
2023-04-16T14:21:52.355Z,70.94
2023-04-16T14:24:19.044Z,71.11
2023-04-16T14:26:46.108Z,71.25
2023-04-16T14:29:12.903Z,72.01
2023-04-16T14:31:39.788Z,71.76
2023-04-16T14:34:06.787Z,72.22
2023-04-16T14:36:33.856Z,71.97
2023-04-16T14:39:00.658Z,72.54
2023-04-16T14:41:27.299Z,72.12
2023-04-16T14:43:53.982Z,72.95
2023-04-16T14:46:20.977Z,72.56
2023-04-16T14:48:47.702Z,72.61
2023-04-16T14:51:14.423Z,71.77
2023-04-16T14:53:41.382Z,72.82
2023-04-16T14:56:08.214Z,72.39
2023-04-16T14:58:37.850Z,72.98
2023-04-16T15:01:05.932Z,73.24
2023-04-16T15:03:33.048Z,72.85
2023-04-16T15:06:00.481Z,72.87
2023-04-16T15:08:27.320Z,73.31
2023-04-16T15:10:54.182Z,73.15
2023-04-16T15:13:21.281Z,73.58
2023-04-16T15:15:48.541Z,73.87
2023-04-16T15:18:16.441Z,74.54
2023-04-16T15:20:43.167Z,74.47
2023-04-16T15:23:09.998Z,73.80
2023-04-16T15:25:36.731Z,74.25
2023-04-16T15:28:03.573Z,73.85
2023-04-16T15:30:34.272Z,73.72
2023-04-16T15:33:01.374Z,73.15
2023-04-16T15:35:28.703Z,73.91
2023-04-16T15:37:57.526Z,73.86
2023-04-16T15:40:25.627Z,74.19
2023-04-16T15:42:52.620Z,73.39
2023-04-16T15:45:19.948Z,73.63
2023-04-16T15:47:51.082Z,74.46
2023-04-16T15:50:19.185Z,73.94
2023-04-16T15:52:46.825Z,73.74
2023-04-16T15:55:14.661Z,73.98
2023-04-16T15:57:41.725Z,73.74
2023-04-16T16:00:17.414Z,73.50
2023-04-16T16:02:46.759Z,73.48
2023-04-16T16:05:14.975Z,73.76
2023-04-16T16:07:43.491Z,73.99
2023-04-16T16:10:21.038Z,73.96
2023-04-16T16:12:48.266Z,74.31
2023-04-16T16:15:15.277Z,74.69
2023-04-16T16:17:42.229Z,74.65
2023-04-16T16:20:12.888Z,74.53
2023-04-16T16:22:40.604Z,74.62
2023-04-16T16:25:07.931Z,74.20
2023-04-16T16:27:36.159Z,75.18
2023-04-16T16:30:04.681Z,75.18
2023-04-16T16:32:31.483Z,75.19
2023-04-16T16:34:58.287Z,74.16
2023-04-16T16:37:25.028Z,74.91
2023-04-16T16:39:51.760Z,74.53
2023-04-16T16:42:18.891Z,75.02
2023-04-16T16:44:47.389Z,74.39
2023-04-16T16:47:14.866Z,75.13
2023-04-16T16:49:41.893Z,75.16
2023-04-16T16:52:08.615Z,75.13
2023-04-16T16:54:35.503Z,74.85
2023-04-16T16:57:05.653Z,74.71
2023-04-16T16:59:32.972Z,74.87
2023-04-16T17:01:59.945Z,74.64
2023-04-16T17:04:26.726Z,74.66
2023-04-16T17:06:53.452Z,74.88
2023-04-16T17:09:20.391Z,74.15
2023-04-16T17:11:47.518Z,74.59
2023-04-16T17:14:14.200Z,75.15
2023-04-16T17:16:41.249Z,74.89
2023-04-16T17:19:08.120Z,74.83
2023-04-16T17:21:35.767Z,75.64
2023-04-16T17:24:02.586Z,75.31
2023-04-16T17:26:29.613Z,75.72
2023-04-16T17:28:57.998Z,75.33
2023-04-16T17:31:27.359Z,74.96
2023-04-16T17:33:54.332Z,75.59
2023-04-16T17:36:23.286Z,75.44
2023-04-16T17:38:50.705Z,75.85
2023-04-16T17:41:17.531Z,76.56
2023-04-16T17:43:46.681Z,76.03
2023-04-16T17:46:13.599Z,76.11
2023-04-16T17:48:40.489Z,76.85
2023-04-16T17:51:11.854Z,77.42
2023-04-16T17:53:39.354Z,77.27
2023-04-16T17:56:06.969Z,77.50
2023-04-16T17:58:35.357Z,78.07
2023-04-16T18:01:03.569Z,77.50
2023-04-16T18:03:32.018Z,77.53
2023-04-16T18:05:59.470Z,77.79
2023-04-16T18:08:26.591Z,77.92
2023-04-16T18:10:55.034Z,78.13
2023-04-16T18:13:21.866Z,77.49
2023-04-16T18:15:48.646Z,77.83
2023-04-16T18:18:16.438Z,77.76
2023-04-16T18:20:43.802Z,78.14
2023-04-16T18:23:10.888Z,78.28
2023-04-16T18:25:38.170Z,78.68
2023-04-16T18:28:06.751Z,78.23
2023-04-16T18:30:34.468Z,78.58
2023-04-16T18:35:32.173Z,79.13
2023-04-16T18:37:59.320Z,79.13
2023-04-16T18:40:29.429Z,79.16
2023-04-16T18:42:56.706Z,78.83
2023-04-16T18:45:23.728Z,79.75
2023-04-16T18:48:19.951Z,79.42
2023-04-16T18:50:47.733Z,79.83
2023-04-16T18:53:15.890Z,79.72
2023-04-16T18:55:42.655Z,79.90
2023-04-16T18:58:09.779Z,79.21
2023-04-16T19:00:36.677Z,79.94
2023-04-16T19:03:07.072Z,79.68
2023-04-16T19:05:34.314Z,79.54
2023-04-16T19:08:01.346Z,79.63
2023-04-16T19:10:28.329Z,79.25
2023-04-16T19:12:57.073Z,79.49
2023-04-16T19:15:23.973Z,79.34
2023-04-16T19:17:52.963Z,79.81
2023-04-16T19:20:20.492Z,79.56
2023-04-16T19:22:47.381Z,79.96
2023-04-16T19:25:14.063Z,79.73
2023-04-16T19:27:41.598Z,79.48
2023-04-16T19:30:09.090Z,79.61
2023-04-16T19:32:36.457Z,79.18
2023-04-16T19:35:05.247Z,80.02
2023-04-16T19:37:46.101Z,80.45
2023-04-16T19:40:13.240Z,79.33
2023-04-16T19:42:40.680Z,79.75
2023-04-16T19:45:08.046Z,80.18
2023-04-16T19:47:35.048Z,80.09
2023-04-16T19:50:02.113Z,80.38
2023-04-16T19:55:51.009Z,80.11
2023-04-16T19:58:18.508Z,80.08
2023-04-16T20:00:50.322Z,80.36
2023-04-16T20:03:41.031Z,80.50
2023-04-16T20:06:08.852Z,80.25
2023-04-16T20:08:49.632Z,80.30
2023-04-16T20:11:17.642Z,80.01
2023-04-16T20:13:48.751Z,80.62
2023-04-16T20:16:16.050Z,80.40
2023-04-16T20:18:42.792Z,80.62
2023-04-16T20:21:10.451Z,80.88
2023-04-16T20:23:37.538Z,80.91
2023-04-16T20:26:08.068Z,81.06
2023-04-16T20:28:35.257Z,80.72
2023-04-16T20:31:02.002Z,80.49
2023-04-16T20:33:28.694Z,80.87
2023-04-16T20:35:56.286Z,80.89
2023-04-16T20:38:23.849Z,80.88
2023-04-16T20:41:11.390Z,81.05
2023-04-16T20:43:42.177Z,80.49
2023-04-16T20:46:18.336Z,80.19
2023-04-16T20:48:45.404Z,80.34
2023-04-16T20:51:12.297Z,80.71
2023-04-16T20:53:39.424Z,80.46
2023-04-16T20:56:07.238Z,80.30
2023-04-16T20:58:33.963Z,80.39
2023-04-16T21:01:07.452Z,81.09
2023-04-16T21:03:34.708Z,81.08
2023-04-16T21:06:01.915Z,80.95
2023-04-16T21:08:28.658Z,80.91
2023-04-16T21:10:55.441Z,80.87
2023-04-16T21:13:35.274Z,81.55
2023-04-16T21:16:04.997Z,81.17
2023-04-16T21:18:32.299Z,81.38
2023-04-16T21:20:59.201Z,81.41
2023-04-16T21:23:26.222Z,81.62
2023-04-16T21:25:55.578Z,81.33
2023-04-16T21:28:22.346Z,80.98
2023-04-16T21:30:52.658Z,80.94
2023-04-16T21:33:19.510Z,81.30
2023-04-16T21:35:51.997Z,80.87
2023-04-16T21:38:20.196Z,81.43
2023-04-16T21:40:50.637Z,80.63
2023-04-16T21:43:17.861Z,81.28
2023-04-16T21:45:44.606Z,80.76
2023-04-16T21:48:11.681Z,80.93
2023-04-16T21:50:38.834Z,81.41
2023-04-16T21:53:06.351Z,80.99
2023-04-16T21:55:34.691Z,80.77
2023-04-16T21:58:02.050Z,80.30
2023-04-16T22:00:29.023Z,79.94
2023-04-16T22:03:00.113Z,81.03
2023-04-16T22:05:26.994Z,80.88
2023-04-16T22:07:53.739Z,80.80
2023-04-16T22:10:20.608Z,80.79
2023-04-16T22:12:47.307Z,80.46
2023-04-16T22:15:14.123Z,80.82
2023-04-16T22:17:41.162Z,80.71
2023-04-16T22:20:14.652Z,80.49
2023-04-16T22:22:42.266Z,80.99
2023-04-16T22:25:09.816Z,81.20
2023-04-16T22:27:37.120Z,81.81
2023-04-16T22:30:05.297Z,81.26
2023-04-16T22:32:33.100Z,81.12
2023-04-16T22:34:59.851Z,81.58
2023-04-16T22:37:26.601Z,80.88
2023-04-16T22:39:53.369Z,80.67
2023-04-16T22:42:20.111Z,80.82
2023-04-16T22:44:46.800Z,80.70
2023-04-16T22:47:16.690Z,81.49
2023-04-16T22:49:43.549Z,80.96
2023-04-16T22:52:10.323Z,80.92
2023-04-16T22:54:37.031Z,81.54
2023-04-16T22:57:03.849Z,81.36
2023-04-16T22:59:31.057Z,81.00
2023-04-16T23:01:57.861Z,80.40
2023-04-16T23:04:24.793Z,80.70
2023-04-16T23:06:51.946Z,81.02
2023-04-16T23:09:20.425Z,80.69
2023-04-16T23:11:47.279Z,80.82
2023-04-16T23:14:15.620Z,80.66
2023-04-16T23:16:43.453Z,80.71
2023-04-16T23:19:14.902Z,80.69
2023-04-16T23:21:41.857Z,80.16
2023-04-16T23:24:08.655Z,80.74
2023-04-16T23:26:35.393Z,81.25
2023-04-16T23:29:02.076Z,81.13
2023-04-16T23:31:28.757Z,80.38
2023-04-16T23:33:55.556Z,80.54
2023-04-16T23:36:22.430Z,80.97
2023-04-16T23:38:49.186Z,80.59
2023-04-16T23:41:16.127Z,80.55
2023-04-16T23:43:42.937Z,79.95
2023-04-16T23:46:09.863Z,80.71
2023-04-16T23:48:36.515Z,80.04
2023-04-16T23:51:03.405Z,80.69
2023-04-16T23:53:30.133Z,81.13
2023-04-16T23:55:56.815Z,80.54
2023-04-16T23:58:23.558Z,80.70
